Time;durP1;ratioP1;P1;durP2;ratioP2;P2;SDS_P1;SDS_P2;PMS_P1;PMS_P2;Temp;Humidity;BMP_temperature;BMP_pressure;BME280_temperature;BME280_humidity;BME280_pressure;Samples;Min_cycle;Max_cycle;Signal;HPM_P1;HPM_P2
2023/09/03 00:01:47;;;;;;;22.83;12.23;;;14.60;99.90;;;;;;5001749;28;20049;-75
2023/09/03 00:04:13;;;;;;;19.45;12.20;;;14.60;99.90;;;;;;5002778;28;20056;-74
2023/09/03 00:06:39;;;;;;;21.92;12.05;;;14.60;99.90;;;;;;5002540;28;20648;-74
2023/09/03 00:09:04;;;;;;;18.98;11.60;;;14.60;99.90;;;;;;5002695;28;20018;-75
2023/09/03 00:11:31;;;;;;;19.38;11.85;;;14.50;99.90;;;;;;5001401;28;20045;-73
2023/09/03 00:13:57;;;;;;;18.15;11.30;;;14.50;99.90;;;;;;5002501;28;20038;-73
2023/09/03 00:16:22;;;;;;;19.23;11.73;;;14.40;99.90;;;;;;5000032;28;20037;-74
2023/09/03 00:18:49;;;;;;;19.67;11.32;;;14.40;99.90;;;;;;5001821;28;20038;-74
2023/09/03 00:21:15;;;;;;;20.65;11.35;;;14.40;99.90;;;;;;5000337;28;20399;-73
2023/09/03 00:23:40;;;;;;;20.38;12.00;;;14.40;99.90;;;;;;5001435;28;20022;-74
2023/09/03 00:26:06;;;;;;;19.60;11.75;;;14.30;99.90;;;;;;5002426;28;20030;-74
2023/09/03 00:28:32;;;;;;;17.00;11.13;;;14.30;99.90;;;;;;5000322;28;20141;-74
2023/09/03 00:31:04;;;;;;;21.08;11.13;;;14.30;99.90;;;;;;5001502;28;20030;-73
2023/09/03 00:33:31;;;;;;;20.08;11.48;;;14.30;99.90;;;;;;5016209;28;20034;-74
2023/09/03 00:35:57;;;;;;;22.05;11.48;;;14.30;99.90;;;;;;4999604;28;20072;-74
2023/09/03 00:38:23;;;;;;;19.80;12.38;;;14.30;99.90;;;;;;5001950;28;20026;-73
2023/09/03 00:40:48;;;;;;;18.48;11.23;;;14.30;99.90;;;;;;5001448;28;20073;-75
2023/09/03 00:43:14;;;;;;;18.20;11.73;;;14.30;99.90;;;;;;5001791;28;20034;-73
2023/09/03 00:45:42;;;;;;;21.55;11.23;;;14.30;99.90;;;;;;5000656;28;20495;-73
2023/09/03 00:48:09;;;;;;;20.85;11.90;;;14.30;99.90;;;;;;5001825;28;20030;-73
2023/09/03 00:50:37;;;;;;;24.38;11.95;;;14.20;99.90;;;;;;5001253;28;20018;-73
2023/09/03 00:53:07;;;;;;;19.83;11.57;;;14.20;99.90;;;;;;4999827;28;20105;-73
2023/09/03 00:55:32;;;;;;;20.08;12.10;;;14.20;99.90;;;;;;5000550;28;20030;-73
2023/09/03 00:57:59;;;;;;;23.00;11.63;;;14.10;99.90;;;;;;5002139;28;20026;-73
2023/09/03 01:00:25;;;;;;;18.13;11.85;;;14.10;99.90;;;;;;5001916;28;20054;-74
2023/09/03 01:02:54;;;;;;;19.23;11.70;;;14.10;99.90;;;;;;5001861;28;20088;-73
2023/09/03 01:05:19;;;;;;;16.85;11.60;;;14.10;99.90;;;;;;5000133;28;20038;-74
2023/09/03 01:07:46;;;;;;;19.88;11.48;;;14.10;99.90;;;;;;5000205;28;20093;-74
2023/09/03 01:10:12;;;;;;;19.02;11.93;;;14.10;99.90;;;;;;5001100;28;20034;-74
2023/09/03 01:13:01;;;;;;;21.75;11.35;;;14.00;99.90;;;;;;5000843;28;20097;-73
2023/09/03 01:15:35;;;;;;;18.70;11.38;;;14.10;99.90;;;;;;5001574;28;20038;-73
2023/09/03 01:18:14;;;;;;;;;;;14.00;99.90;;;;;;5000267;28;20559;-74
2023/09/03 01:20:44;;;;;;;19.33;10.35;;;14.00;99.90;;;;;;5001084;28;19917;-75
2023/09/03 01:23:39;;;;;;;18.38;10.48;;;14.00;99.90;;;;;;5000014;28;20030;-74
2023/09/03 01:26:32;;;;;;;17.85;10.55;;;14.00;99.90;;;;;;5003044;28;20034;-74
2023/09/03 01:28:59;;;;;;;16.45;10.25;;;14.00;99.90;;;;;;5004442;28;20468;-74
2023/09/03 01:31:25;;;;;;;16.75;10.60;;;14.00;99.90;;;;;;5005824;28;20082;-73
2023/09/03 01:34:01;;;;;;;17.67;10.32;;;14.00;99.90;;;;;;5005709;28;20058;-74
2023/09/03 01:36:28;;;;;;;30.10;10.98;;;14.00;99.90;;;;;;5004794;28;20026;-74
2023/09/03 01:38:54;;;;;;;16.90;11.23;;;14.00;99.90;;;;;;5004681;28;20030;-73
2023/09/03 01:41:20;;;;;;;16.83;11.00;;;14.00;99.90;;;;;;5004611;28;20037;-74
2023/09/03 01:43:45;;;;;;;17.20;10.90;;;14.00;99.90;;;;;;5004783;28;20094;-74
2023/09/03 01:46:23;;;;;;;20.77;11.93;;;14.00;99.90;;;;;;5003704;28;20518;-74
2023/09/03 01:49:15;;;;;;;22.77;11.98;;;14.00;99.90;;;;;;5004636;28;20496;-74
2023/09/03 01:51:59;;;;;;;19.27;11.93;;;14.00;99.90;;;;;;5004783;28;20129;-74
2023/09/03 01:54:31;;;;;;;23.38;11.68;;;14.00;99.90;;;;;;5004213;28;20030;-75
2023/09/03 01:56:56;;;;;;;19.80;10.85;;;14.00;99.90;;;;;;5004267;28;20085;-74
2023/09/03 01:59:29;;;;;;;18.73;11.23;;;14.00;99.90;;;;;;5003406;28;20018;-75
2023/09/03 02:01:56;;;;;;;17.85;11.32;;;14.00;99.90;;;;;;5004887;28;20336;-74
2023/09/03 02:04:22;;;;;;;16.85;11.63;;;14.00;99.90;;;;;;5004909;28;20073;-74
2023/09/03 02:06:48;;;;;;;19.67;11.20;;;13.90;99.90;;;;;;5003611;28;20050;-74
2023/09/03 02:09:13;;;;;;;18.70;12.10;;;13.90;99.90;;;;;;5004595;28;20094;-73
2023/09/03 02:11:39;;;;;;;27.70;12.85;;;14.00;99.90;;;;;;5003456;28;20125;-74
2023/09/03 02:14:05;;;;;;;19.05;11.43;;;14.00;99.90;;;;;;5005107;28;20029;-73
2023/09/03 02:16:31;;;;;;;19.42;12.10;;;14.00;99.90;;;;;;5003301;28;20026;-74
2023/09/03 02:18:57;;;;;;;18.65;11.73;;;14.00;99.90;;;;;;5003394;28;20026;-74
2023/09/03 02:21:23;;;;;;;18.98;11.07;;;14.00;99.90;;;;;;5004251;28;20068;-74
2023/09/03 02:23:48;;;;;;;21.92;10.88;;;14.00;99.90;;;;;;5002819;28;20030;-74
2023/09/03 02:26:14;;;;;;;19.02;11.63;;;14.00;99.90;;;;;;5004843;28;20031;-74
2023/09/03 02:28:40;;;;;;;20.77;12.10;;;14.00;99.90;;;;;;5004540;28;20084;-74
2023/09/03 02:31:06;;;;;;;17.70;11.13;;;14.00;99.90;;;;;;5004047;28;20030;-73
2023/09/03 02:33:32;;;;;;;17.25;11.07;;;13.90;99.90;;;;;;5004252;28;20026;-73
2023/09/03 02:35:57;;;;;;;18.08;10.82;;;14.00;99.90;;;;;;5003016;28;20029;-74
2023/09/03 02:38:23;;;;;;;18.02;11.02;;;14.00;99.90;;;;;;5003391;28;20031;-74
2023/09/03 02:40:48;;;;;;;18.42;11.07;;;14.00;99.90;;;;;;5003956;28;20018;-74
2023/09/03 02:43:14;;;;;;;19.02;10.85;;;14.00;99.90;;;;;;5002535;28;20491;-74
2023/09/03 02:45:40;;;;;;;17.65;10.65;;;14.00;99.90;;;;;;5003769;28;20027;-74
2023/09/03 02:48:08;;;;;;;14.15;9.30;;;14.00;99.90;;;;;;5002861;28;20045;-73
2023/09/03 02:50:36;;;;;;;16.63;9.93;;;14.00;99.90;;;;;;5003358;28;20050;-75
2023/09/03 02:53:07;;;;;;;21.08;9.75;;;14.00;99.90;;;;;;5003204;28;20030;-74
2023/09/03 02:55:33;;;;;;;19.13;9.75;;;14.00;99.90;;;;;;5003235;28;20042;-74
2023/09/03 02:57:59;;;;;;;18.65;10.27;;;14.00;99.90;;;;;;5003229;28;20023;-72
2023/09/03 03:00:25;;;;;;;13.75;8.95;;;14.00;99.90;;;;;;5002890;28;20037;-73
2023/09/03 03:02:54;;;;;;;15.35;8.65;;;14.00;99.90;;;;;;5002594;28;20035;-74
2023/09/03 03:05:20;;;;;;;16.80;8.82;;;13.90;99.90;;;;;;5002376;28;20505;-74
2023/09/03 03:07:46;;;;;;;14.80;8.20;;;13.90;99.90;;;;;;5002748;28;20113;-72
2023/09/03 03:10:12;;;;;;;13.18;9.05;;;13.80;99.90;;;;;;5003567;28;20042;-73
2023/09/03 03:12:38;;;;;;;19.50;9.98;;;13.80;99.90;;;;;;5002615;28;20095;-73
2023/09/03 03:15:04;;;;;;;15.65;9.32;;;13.80;99.90;;;;;;5003078;28;20078;-72
2023/09/03 03:17:30;;;;;;;16.83;9.57;;;13.80;99.90;;;;;;5002933;28;20034;-73
2023/09/03 03:19:56;;;;;;;18.52;10.05;;;13.80;99.90;;;;;;5000868;28;20117;-72
2023/09/03 03:22:21;;;;;;;26.77;11.40;;;13.80;99.90;;;;;;5001883;28;20041;-73
2023/09/03 03:24:47;;;;;;;18.35;10.40;;;13.80;99.90;;;;;;5002243;28;20078;-74
2023/09/03 03:27:14;;;;;;;19.20;11.57;;;13.80;99.90;;;;;;5001953;28;20119;-74
2023/09/03 03:29:39;;;;;;;19.15;11.82;;;13.80;99.90;;;;;;5002940;28;20212;-73
2023/09/03 03:32:07;;;;;;;20.63;11.32;;;13.80;99.90;;;;;;5002821;28;20046;-74
2023/09/03 03:34:32;;;;;;;23.20;12.15;;;13.80;99.90;;;;;;5002139;28;20046;-74
2023/09/03 03:36:58;;;;;;;20.20;12.13;;;13.80;99.90;;;;;;5002599;28;20045;-74
2023/09/03 03:39:23;;;;;;;19.75;12.55;;;13.80;99.90;;;;;;5001097;28;20038;-74
2023/09/03 03:41:49;;;;;;;19.55;12.07;;;13.80;99.90;;;;;;5000911;28;20031;-75
2023/09/03 03:44:15;;;;;;;22.27;12.82;;;13.80;99.90;;;;;;5001546;28;20050;-73
2023/09/03 03:46:40;;;;;;;23.27;12.40;;;13.80;99.90;;;;;;5002632;28;20046;-74
2023/09/03 03:49:06;;;;;;;19.40;12.02;;;13.70;99.90;;;;;;5000618;28;20037;-71
2023/09/03 03:51:32;;;;;;;23.17;12.88;;;13.80;99.90;;;;;;5001445;28;20491;-75
2023/09/03 03:54:05;;;;;;;23.58;13.18;;;13.80;99.90;;;;;;5001059;28;20037;-73
2023/09/03 03:56:31;;;;;;;25.67;13.20;;;13.80;99.90;;;;;;5002439;28;20014;-73
2023/09/03 03:58:56;;;;;;;18.85;11.25;;;13.80;99.90;;;;;;5000750;28;20026;-72
2023/09/03 04:01:25;;;;;;;20.38;11.95;;;13.80;99.90;;;;;;5002113;28;20030;-73
2023/09/03 04:03:52;;;;;;;22.42;12.02;;;13.80;99.90;;;;;;5001892;28;20054;-72
2023/09/03 04:06:19;;;;;;;22.13;11.65;;;13.70;99.90;;;;;;5001156;28;20061;-73
2023/09/03 04:08:45;;;;;;;21.15;11.13;;;13.80;99.90;;;;;;5002585;28;20050;-73
2023/09/03 04:11:13;;;;;;;23.08;11.38;;;13.80;99.90;;;;;;5002519;28;20034;-73
2023/09/03 04:13:39;;;;;;;18.10;11.57;;;13.70;99.90;;;;;;5001584;28;20094;-74
2023/09/03 04:16:19;;;;;;;22.17;10.88;;;13.70;99.90;;;;;;5002704;28;20557;-74
2023/09/03 04:18:50;;;;;;;16.30;10.40;;;13.70;99.90;;;;;;5002964;28;20034;-74
2023/09/03 04:21:16;;;;;;;18.75;10.90;;;13.70;99.90;;;;;;5000462;28;20466;-74
2023/09/03 04:23:43;;;;;;;16.23;10.25;;;13.70;99.90;;;;;;5001260;28;20105;-73
2023/09/03 04:26:09;;;;;;;20.23;10.93;;;13.70;99.90;;;;;;5001997;28;20751;-73
2023/09/03 04:28:35;;;;;;;16.95;10.68;;;13.70;99.90;;;;;;5001779;28;20442;-73
2023/09/03 04:31:08;;;;;;;18.42;10.02;;;13.70;99.90;;;;;;5001676;28;20027;-73
2023/09/03 04:33:34;;;;;;;19.20;10.57;;;13.70;99.90;;;;;;5001611;28;20027;-72
2023/09/03 04:36:02;;;;;;;18.80;11.00;;;13.70;99.90;;;;;;5000883;28;20033;-73
2023/09/03 04:38:29;;;;;;;17.45;10.35;;;13.70;99.90;;;;;;5000686;28;20044;-74
2023/09/03 04:40:56;;;;;;;17.42;10.38;;;13.70;99.90;;;;;;5002077;28;20026;-73
2023/09/03 04:43:23;;;;;;;19.05;11.05;;;13.70;99.90;;;;;;5002222;28;20359;-74
2023/09/03 04:45:50;;;;;;;17.90;11.00;;;13.70;99.90;;;;;;5000359;28;20026;-73
2023/09/03 04:48:17;;;;;;;19.73;11.13;;;13.70;99.90;;;;;;5001284;28;20052;-73
2023/09/03 04:50:43;;;;;;;18.77;11.05;;;13.70;99.90;;;;;;5000975;28;20049;-73
2023/09/03 04:53:11;;;;;;;18.30;11.07;;;13.70;99.90;;;;;;5000051;28;20475;-72
2023/09/03 04:55:38;;;;;;;20.05;10.93;;;13.70;99.90;;;;;;4999547;28;20031;-74
2023/09/03 04:58:03;;;;;;;21.23;11.60;;;13.70;99.90;;;;;;5000073;28;20030;-74
2023/09/03 05:00:30;;;;;;;18.27;11.48;;;13.70;99.90;;;;;;4999277;28;20033;-71
2023/09/03 05:02:59;;;;;;;20.27;11.52;;;13.80;99.90;;;;;;5004085;28;20061;-71
2023/09/03 05:05:25;;;;;;;15.98;10.82;;;13.80;99.90;;;;;;5005945;28;20034;-73
2023/09/03 05:07:51;;;;;;;18.85;10.90;;;13.80;99.90;;;;;;5004676;28;20058;-73
2023/09/03 05:10:17;;;;;;;17.65;11.02;;;13.80;99.90;;;;;;5006261;28;20038;-73
2023/09/03 05:12:43;;;;;;;18.25;11.18;;;13.80;99.90;;;;;;5005079;28;20472;-71
2023/09/03 05:15:13;;;;;;;19.88;10.82;;;13.80;99.90;;;;;;5004774;28;20085;-72
2023/09/03 05:17:39;;;;;;;15.38;10.38;;;13.80;99.90;;;;;;5005535;28;20033;-73
2023/09/03 05:20:06;;;;;;;17.98;10.65;;;13.80;99.90;;;;;;5005584;28;20034;-71
2023/09/03 05:22:33;;;;;;;16.40;9.40;;;13.80;99.90;;;;;;5002200;28;20030;-71
2023/09/03 05:24:58;;;;;;;17.27;10.70;;;13.80;99.90;;;;;;5003678;28;20090;-71
2023/09/03 05:27:24;;;;;;;20.25;10.85;;;13.90;99.90;;;;;;5003229;28;20057;-72
2023/09/03 05:29:49;;;;;;;14.98;9.98;;;13.90;99.90;;;;;;5004898;28;20499;-71
2023/09/03 05:32:16;;;;;;;16.83;10.52;;;13.80;99.90;;;;;;5002936;28;20030;-71
2023/09/03 05:34:41;;;;;;;19.80;10.05;;;13.90;99.90;;;;;;5001915;28;20042;-71
2023/09/03 05:37:07;;;;;;;16.17;9.85;;;13.90;99.90;;;;;;5004697;28;20030;-72
2023/09/03 05:39:32;;;;;;;17.48;9.73;;;13.90;99.90;;;;;;5002800;28;20026;-73
2023/09/03 05:41:58;;;;;;;14.93;9.80;;;13.90;99.90;;;;;;5003115;28;20028;-71
2023/09/03 05:44:24;;;;;;;16.20;10.25;;;14.00;99.90;;;;;;5002302;28;20022;-72
2023/09/03 05:46:50;;;;;;;17.08;10.20;;;14.00;99.90;;;;;;5004820;28;20120;-72
2023/09/03 05:49:15;;;;;;;14.55;9.73;;;14.00;99.90;;;;;;5004539;28;20053;-71
2023/09/03 05:51:41;;;;;;;19.13;10.40;;;14.00;99.90;;;;;;5003291;28;20030;-71
2023/09/03 05:54:07;;;;;;;15.02;9.65;;;14.00;99.90;;;;;;5004800;28;20030;-72
2023/09/03 05:56:35;;;;;;;17.73;9.88;;;14.10;99.90;;;;;;5003716;28;20029;-72
2023/09/03 05:59:05;;;;;;;17.48;10.52;;;14.10;99.90;;;;;;5003938;28;20014;-72
2023/09/03 06:01:31;;;;;;;15.52;10.25;;;14.10;99.90;;;;;;5003116;28;20072;-71
2023/09/03 06:03:58;;;;;;;16.85;10.30;;;14.20;99.90;;;;;;5000569;28;20030;-73
2023/09/03 06:06:25;;;;;;;17.65;9.60;;;14.20;99.90;;;;;;5002024;28;20045;-73
2023/09/03 06:08:50;;;;;;;16.15;9.15;;;14.20;99.90;;;;;;5002202;28;20050;-73
2023/09/03 06:11:16;;;;;;;15.85;9.35;;;14.30;99.90;;;;;;5001719;28;20030;-71
2023/09/03 06:13:41;;;;;;;13.48;8.70;;;14.40;99.90;;;;;;5002395;28;20380;-72
2023/09/03 06:16:07;;;;;;;17.50;8.60;;;14.40;99.90;;;;;;5004471;28;20525;-72
2023/09/03 06:18:32;;;;;;;17.38;8.23;;;14.50;99.90;;;;;;5004196;28;20053;-72
2023/09/03 06:20:58;;;;;;;12.13;7.68;;;14.50;99.90;;;;;;5004722;28;20023;-74
2023/09/03 06:23:24;;;;;;;12.20;7.55;;;14.70;99.90;;;;;;5003736;28;20033;-73
2023/09/03 06:25:54;;;;;;;14.75;8.07;;;14.70;99.90;;;;;;5003802;28;20709;-74
2023/09/03 06:28:20;;;;;;;12.02;7.50;;;14.70;99.90;;;;;;5003035;28;20371;-73
2023/09/03 06:30:46;;;;;;;9.30;6.68;;;14.80;99.90;;;;;;5002948;28;20044;-70
2023/09/03 06:33:12;;;;;;;13.07;6.63;;;14.90;99.90;;;;;;5004437;28;20034;-71
2023/09/03 06:35:38;;;;;;;16.67;7.25;;;14.90;99.90;;;;;;5002349;28;20050;-72
2023/09/03 06:38:04;;;;;;;11.70;6.97;;;14.90;99.90;;;;;;5004285;28;20022;-73
2023/09/03 06:40:29;;;;;;;10.48;6.53;;;15.00;99.90;;;;;;5002382;28;20018;-72
2023/09/03 06:42:55;;;;;;;10.07;6.97;;;15.10;99.90;;;;;;5004743;28;20399;-72
2023/09/03 06:45:21;;;;;;;10.85;6.63;;;15.20;99.90;;;;;;5003712;28;20059;-73
2023/09/03 06:47:47;;;;;;;12.05;7.55;;;15.20;99.90;;;;;;5001929;28;20037;-72
2023/09/03 06:50:13;;;;;;;11.55;6.85;;;15.30;99.90;;;;;;5002456;28;21153;-72
2023/09/03 06:52:39;;;;;;;11.82;6.05;;;15.30;99.90;;;;;;5001631;28;20517;-72
2023/09/03 06:55:05;;;;;;;9.52;5.75;;;15.40;99.90;;;;;;5001796;28;20479;-71
2023/09/03 06:57:31;;;;;;;11.77;6.25;;;15.50;99.90;;;;;;5003717;28;20014;-71
2023/09/03 06:59:57;;;;;;;12.18;6.20;;;15.40;99.90;;;;;;5001969;28;20038;-70
2023/09/03 07:02:23;;;;;;;9.20;6.10;;;15.50;99.90;;;;;;4999820;28;20038;-72
2023/09/03 07:04:50;;;;;;;12.23;6.45;;;15.60;99.90;;;;;;5000979;28;20026;-73
2023/09/03 07:07:15;;;;;;;13.57;6.00;;;15.60;99.90;;;;;;5002467;28;20106;-71
2023/09/03 07:09:41;;;;;;;11.02;6.70;;;15.70;99.90;;;;;;5000707;28;20058;-71
2023/09/03 07:12:07;;;;;;;10.07;6.50;;;15.70;99.90;;;;;;5001250;28;20117;-72
2023/09/03 07:14:34;;;;;;;11.52;6.03;;;15.80;99.90;;;;;;5003090;28;20033;-72
2023/09/03 07:17:00;;;;;;;10.45;6.13;;;15.80;99.90;;;;;;5002577;28;20109;-73
2023/09/03 07:19:26;;;;;;;12.65;6.38;;;15.80;99.90;;;;;;5003242;28;20030;-73
2023/09/03 07:21:52;;;;;;;12.82;7.15;;;15.80;99.90;;;;;;5003648;28;20068;-72
2023/09/03 07:24:18;;;;;;;12.40;6.78;;;15.80;99.90;;;;;;5003849;28;20030;-72
2023/09/03 07:26:43;;;;;;;13.15;7.32;;;15.90;99.90;;;;;;5002192;28;20031;-73
2023/09/03 07:29:09;;;;;;;12.45;6.65;;;15.90;99.90;;;;;;5002896;28;20100;-73
2023/09/03 07:31:40;;;;;;;10.57;7.07;;;16.00;99.90;;;;;;5002959;28;20061;-72
2023/09/03 07:34:15;;;;;;;9.30;6.45;;;16.10;99.90;;;;;;5000273;28;20506;-72
2023/09/03 07:36:41;;;;;;;10.43;6.50;;;16.10;99.90;;;;;;5001887;28;20455;-74
2023/09/03 07:39:09;;;;;;;13.50;5.97;;;16.30;99.90;;;;;;5003139;28;20029;-72
2023/09/03 07:41:35;;;;;;;8.25;5.05;;;16.40;99.90;;;;;;5002516;28;20030;-72
2023/09/03 07:44:01;;;;;;;8.88;5.72;;;16.40;99.90;;;;;;5002034;28;20136;-72
2023/09/03 07:46:27;;;;;;;7.97;5.55;;;16.50;99.90;;;;;;5001780;28;20050;-71
2023/09/03 07:48:53;;;;;;;11.65;4.93;;;16.60;99.90;;;;;;5001039;28;20045;-73
2023/09/03 07:51:19;;;;;;;7.10;4.65;;;16.70;99.90;;;;;;5001498;28;20034;-72
2023/09/03 07:53:47;;;;;;;7.65;4.80;;;16.80;99.90;;;;;;5000138;28;20049;-73
2023/09/03 07:56:13;;;;;;;6.32;4.47;;;16.80;99.90;;;;;;5002749;28;20077;-74
2023/09/03 07:58:39;;;;;;;10.30;5.63;;;16.90;99.90;;;;;;5000287;28;20034;-72
2023/09/03 08:01:04;;;;;;;9.70;5.60;;;17.00;99.90;;;;;;5002255;28;20029;-72
2023/09/03 08:03:34;;;;;;;8.65;5.20;;;17.10;99.90;;;;;;4997801;28;20033;-72
2023/09/03 08:06:03;;;;;;;7.05;4.55;;;17.20;99.90;;;;;;4997867;28;20038;-75
2023/09/03 08:08:28;;;;;;;12.63;5.78;;;17.20;99.90;;;;;;4998365;28;20518;-73
2023/09/03 08:10:57;;;;;;;12.57;5.75;;;17.30;99.90;;;;;;4996684;28;20030;-72
2023/09/03 08:13:23;;;;;;;10.05;6.03;;;17.40;99.90;;;;;;4997697;28;20542;-70
2023/09/03 08:15:49;;;;;;;10.57;5.65;;;17.50;99.90;;;;;;4998740;28;20027;-73
2023/09/03 08:18:16;;;;;;;10.82;4.93;;;17.60;99.90;;;;;;4997974;28;20124;-73
2023/09/03 08:20:41;;;;;;;12.25;5.68;;;17.70;99.90;;;;;;4998843;28;20057;-73
2023/09/03 08:23:11;;;;;;;8.60;4.95;;;17.70;99.90;;;;;;5000566;28;20030;-71
2023/09/03 08:25:37;;;;;;;8.88;4.47;;;17.80;99.90;;;;;;5000123;28;20049;-72
2023/09/03 08:28:03;;;;;;;7.65;4.70;;;17.90;99.90;;;;;;4999099;28;20661;-72
2023/09/03 08:30:29;;;;;;;8.10;3.35;;;18.00;99.90;;;;;;4998643;28;20046;-73
2023/09/03 08:32:54;;;;;;;6.18;3.38;;;18.10;99.90;;;;;;4999471;28;20023;-73
2023/09/03 08:35:20;;;;;;;8.43;3.83;;;18.30;99.90;;;;;;4998079;28;20065;-73
2023/09/03 08:37:45;;;;;;;8.18;3.75;;;18.30;99.90;;;;;;4997067;28;20041;-72
2023/09/03 08:40:12;;;;;;;5.63;3.72;;;18.40;99.90;;;;;;4999752;28;20041;-72
2023/09/03 08:42:41;;;;;;;6.55;3.50;;;18.50;99.90;;;;;;4999552;28;20026;-73
2023/09/03 08:45:11;;;;;;;6.93;3.38;;;18.50;99.90;;;;;;4999549;28;20076;-73
2023/09/03 08:47:40;;;;;;;7.85;3.50;;;18.60;99.90;;;;;;5000779;28;20034;-71
2023/09/03 08:50:10;;;;;;;6.88;3.78;;;18.60;99.90;;;;;;4998182;28;20102;-73
2023/09/03 08:52:37;;;;;;;6.60;2.97;;;18.60;99.90;;;;;;4996654;28;20030;-73
2023/09/03 08:55:04;;;;;;;7.18;3.20;;;18.70;99.90;;;;;;4999701;28;20030;-72
2023/09/03 08:57:30;;;;;;;7.15;2.92;;;18.80;99.90;;;;;;4998728;28;20030;-71
2023/09/03 08:59:57;;;;;;;8.00;3.05;;;18.80;99.90;;;;;;4999022;28;20030;-72
2023/09/03 09:02:24;;;;;;;3.50;2.22;;;18.80;99.90;;;;;;4998735;28;20037;-73
2023/09/03 09:04:50;;;;;;;3.67;2.20;;;18.80;99.90;;;;;;4996863;28;20061;-72
2023/09/03 09:07:18;;;;;;;6.50;2.60;;;18.90;99.90;;;;;;5000157;28;20033;-71
2023/09/03 09:09:46;;;;;;;4.25;2.25;;;18.90;99.90;;;;;;4999335;28;20407;-75
2023/09/03 09:12:27;;;;;;;4.47;2.63;;;18.90;99.90;;;;;;4997091;28;20038;-73
2023/09/03 09:15:00;;;;;;;7.63;2.90;;;18.90;99.90;;;;;;4998840;28;20026;-72
2023/09/03 09:17:28;;;;;;;3.15;2.35;;;18.90;99.90;;;;;;4995192;28;20058;-72
2023/09/03 09:19:59;;;;;;;7.32;3.15;;;19.00;99.90;;;;;;5000055;28;20501;-74
2023/09/03 09:22:25;;;;;;;5.82;2.78;;;19.00;99.90;;;;;;5001099;28;20026;-71
2023/09/03 09:24:51;;;;;;;6.97;3.22;;;19.00;99.90;;;;;;5000019;28;20054;-73
2023/09/03 09:27:19;;;;;;;5.05;2.72;;;19.00;99.90;;;;;;5000694;28;20085;-73
2023/09/03 09:29:45;;;;;;;2.35;2.13;;;19.00;99.90;;;;;;4997116;28;20138;-73
2023/09/03 09:32:24;;;;;;;5.13;2.30;;;19.00;99.90;;;;;;5005264;28;20080;-72
2023/09/03 09:34:50;;;;;;;5.47;2.47;;;19.10;99.90;;;;;;4999850;28;20101;-73
2023/09/03 09:37:16;;;;;;;5.13;2.40;;;19.10;99.90;;;;;;4999176;28;20034;-73
2023/09/03 09:39:46;;;;;;;5.85;2.65;;;19.20;99.90;;;;;;4999367;28;20023;-70
2023/09/03 09:42:13;;;;;;;4.28;2.40;;;19.20;99.90;;;;;;5000288;28;20076;-71
2023/09/03 09:44:59;;;;;;;4.05;2.50;;;19.20;99.90;;;;;;5000924;28;20129;-72
2023/09/03 09:47:28;;;;;;;6.07;2.83;;;19.20;99.90;;;;;;4994817;28;20040;-73
2023/09/03 09:49:54;;;;;;;5.95;2.55;;;19.30;99.90;;;;;;4995048;28;20041;-72
2023/09/03 09:52:20;;;;;;;6.50;2.40;;;19.20;99.90;;;;;;4996795;28;20093;-74
2023/09/03 09:54:48;;;;;;;4.85;2.33;;;19.30;99.90;;;;;;5002082;28;20034;-72
2023/09/03 09:57:20;;;;;;;8.75;2.63;;;19.30;99.90;;;;;;5001051;28;20030;-73
2023/09/03 09:59:55;;;;;;;4.15;2.17;;;19.30;99.90;;;;;;5000197;28;20146;-70
2023/09/03 10:02:22;;;;;;;8.18;2.25;;;19.30;99.90;;;;;;5002158;28;20037;-73
2023/09/03 10:04:49;;;;;;;5.28;2.42;;;19.40;99.90;;;;;;4997016;28;20176;-71
2023/09/03 10:07:15;;;;;;;6.40;2.33;;;19.40;99.90;;;;;;5002812;28;20030;-72
2023/09/03 10:09:42;;;;;;;4.55;2.38;;;19.50;99.90;;;;;;5000512;28;20044;-72
2023/09/03 10:12:09;;;;;;;7.65;2.55;;;19.50;99.90;;;;;;5001887;28;20955;-73
2023/09/03 10:14:36;;;;;;;3.97;2.08;;;19.60;99.90;;;;;;5002232;28;20398;-74
2023/09/03 10:17:04;;;;;;;3.90;2.10;;;19.60;99.90;;;;;;5001193;28;20125;-74
2023/09/03 10:19:58;;;;;;;4.45;2.63;;;19.60;99.90;;;;;;5001495;28;20026;-72
2023/09/03 10:22:24;;;;;;;7.10;2.50;;;19.70;99.90;;;;;;5002759;28;20038;-72
2023/09/03 10:24:59;;;;;;;3.88;2.10;;;19.70;99.90;;;;;;5001955;28;20030;-72
2023/09/03 10:27:28;;;;;;;6.28;2.20;;;19.70;99.90;;;;;;5002966;28;20048;-77
2023/09/03 10:29:57;;;;;;;5.22;2.30;;;19.60;99.90;;;;;;4999631;28;20042;-73
2023/09/03 10:32:24;;;;;;;4.25;1.98;;;19.60;99.90;;;;;;5000488;28;20018;-76
2023/09/03 10:34:50;;;;;;;6.63;2.55;;;19.60;99.90;;;;;;4999401;28;20043;-72
2023/09/03 10:37:16;;;;;;;2.80;1.90;;;19.70;99.90;;;;;;5002952;28;20096;-71
2023/09/03 10:39:43;;;;;;;4.82;2.17;;;19.80;99.90;;;;;;5000839;28;20081;-73
2023/09/03 10:42:24;;;;;;;3.50;1.90;;;20.00;99.90;;;;;;4999289;28;20073;-68
2023/09/03 10:44:51;;;;;;;4.95;2.05;;;20.10;99.90;;;;;;5002281;28;20038;-72
2023/09/03 10:47:19;;;;;;;6.25;2.42;;;20.10;99.90;;;;;;5001843;28;20031;-72
2023/09/03 10:49:47;;;;;;;4.82;2.50;;;20.20;99.90;;;;;;5002051;28;20038;-75
2023/09/03 10:52:42;;;;;;;5.90;2.15;;;20.20;99.90;;;;;;4999212;28;20035;-71
2023/09/03 10:55:15;;;;;;;4.40;1.70;;;20.30;99.90;;;;;;5013053;28;20042;-70
2023/09/03 10:57:43;;;;;;;3.83;1.80;;;20.40;99.90;;;;;;4996648;28;20040;-71
2023/09/03 11:00:15;;;;;;;2.90;2.05;;;20.50;99.90;;;;;;4998558;28;21206;-73
2023/09/03 11:02:42;;;;;;;6.10;2.50;;;20.60;99.90;;;;;;5002877;28;20049;-73
2023/09/03 11:05:22;;;;;;;3.80;2.25;;;20.60;99.90;;;;;;5001826;28;20035;-71
2023/09/03 11:08:09;;;;;;;4.00;1.75;;;20.60;99.90;;;;;;5001653;28;20416;-71
2023/09/03 11:10:39;;;;;;;3.95;2.10;;;20.60;99.90;;;;;;5002695;28;20061;-72
2023/09/03 11:13:08;;;;;;;7.13;2.20;;;20.70;99.90;;;;;;5000720;28;20094;-73
2023/09/03 11:15:34;;;;;;;4.13;2.08;;;20.60;99.90;;;;;;5001641;28;20519;-71
2023/09/03 11:17:59;;;;;;;2.50;2.00;;;20.50;99.90;;;;;;5002223;28;20027;-72
2023/09/03 11:20:34;;;;;;;6.47;2.15;;;20.40;99.90;;;;;;5002944;28;20098;-74
2023/09/03 11:23:02;;;;;;;4.20;2.13;;;20.40;99.90;;;;;;5002871;28;20026;-72
2023/09/03 11:25:35;;;;;;;4.07;2.30;;;20.30;99.90;;;;;;5000506;28;20027;-72
2023/09/03 11:28:03;;;;;;;3.42;1.90;;;20.20;99.90;;;;;;5003085;28;20030;-75
2023/09/03 11:30:29;;;;;;;7.35;2.20;;;20.20;99.90;;;;;;5000997;28;20038;-72
2023/09/03 11:32:55;;;;;;;4.00;1.65;;;20.30;99.90;;;;;;5002010;28;20125;-74
2023/09/03 11:35:21;;;;;;;6.00;1.90;;;20.50;99.90;;;;;;5002981;28;20042;-73
2023/09/03 11:37:49;;;;;;;4.00;1.80;;;20.60;99.90;;;;;;5002805;28;20054;-72
2023/09/03 11:40:16;;;;;;;4.53;1.70;;;20.50;99.90;;;;;;5000389;28;20023;-71
2023/09/03 11:42:45;;;;;;;3.90;1.80;;;20.50;99.90;;;;;;5001414;28;20148;-72
2023/09/03 11:45:11;;;;;;;5.78;2.15;;;20.40;99.90;;;;;;5001278;28;20062;-72
2023/09/03 11:47:38;;;;;;;3.83;1.90;;;20.30;99.90;;;;;;5001777;28;20027;-73
2023/09/03 11:50:12;;;;;;;3.40;1.95;;;20.20;99.90;;;;;;5000083;28;20034;-73
2023/09/03 11:52:38;;;;;;;5.00;2.13;;;20.20;99.90;;;;;;5002411;28;20469;-71
2023/09/03 11:55:04;;;;;;;4.90;2.20;;;20.30;99.90;;;;;;5002450;28;20033;-72
2023/09/03 11:57:30;;;;;;;4.32;1.70;;;20.40;99.90;;;;;;5001756;28;20029;-72
2023/09/03 11:59:56;;;;;;;2.20;1.52;;;20.50;99.90;;;;;;5000320;28;20022;-72
2023/09/03 12:02:22;;;;;;;6.22;2.20;;;20.80;99.90;;;;;;5002024;28;20022;-73
2023/09/03 12:04:49;;;;;;;3.47;1.95;;;21.00;99.90;;;;;;5000695;28;20022;-71
2023/09/03 12:07:16;;;;;;;8.95;2.00;;;21.10;99.90;;;;;;5000103;28;20030;-73
2023/09/03 12:09:41;;;;;;;3.25;1.60;;;21.20;99.90;;;;;;4999183;28;20100;-72
2023/09/03 12:12:09;;;;;;;4.30;1.83;;;21.30;99.90;;;;;;5000549;28;20034;-72
2023/09/03 12:14:38;;;;;;;5.35;1.77;;;21.50;99.90;;;;;;4999524;28;20038;-72
2023/09/03 12:17:04;;;;;;;4.38;1.70;;;21.70;99.90;;;;;;5000069;28;20077;-71
2023/09/03 12:19:39;;;;;;;5.18;2.15;;;21.90;99.90;;;;;;4999780;28;20034;-74
2023/09/03 12:22:05;;;;;;;3.22;1.90;;;22.00;99.90;;;;;;5001451;28;20034;-72
2023/09/03 12:24:31;;;;;;;5.05;1.80;;;21.90;99.90;;;;;;5002145;28;20018;-73
2023/09/03 12:27:04;;;;;;;4.22;1.90;;;21.70;99.90;;;;;;5002027;28;20423;-73
2023/09/03 12:29:35;;;;;;;4.00;1.90;;;21.70;99.90;;;;;;5001302;28;20076;-75
2023/09/03 12:32:02;;;;;;;5.07;2.05;;;21.70;99.90;;;;;;5000217;28;20053;-71
2023/09/03 12:34:39;;;;;;;4.07;2.22;;;21.80;99.90;;;;;;4999252;28;20046;-73
2023/09/03 12:37:05;;;;;;;4.55;1.70;;;22.00;99.90;;;;;;4999607;28;20063;-72
2023/09/03 12:39:36;;;;;;;2.95;1.73;;;22.30;99.90;;;;;;5000940;28;20030;-72